• Join FlightAware (Why Join?)
  • Login
  • US Flag 
04:20AM EDT


 

Airport Tracker/Info


-or-


 

Live Flight TrackerFlight Track Log ✈ DAL3982 ✈ 20-Apr-2013 ✈ KATL - CYUL

Flight Track Log - Related Links

Times and Time Zones

All times are in EDT time to prevent confusion due to time zone crossing. See the DAL3982 flight status page for this flight to view local times or setup timezone preferences in your user account.

Time Position Orientation Groundspeed Altitude Reporting Facility
EDT Latitude Longitude Course Direction KTS MPH feet Rate Location/Type
09:30PM 33.6517 -84.4756 11° North 441 507 2,600  Level Atlanta Center
09:31PM 33.6667 -84.5000 306° West 196 226 3,200 2,040 Climbing Atlanta TRACON
09:32PM 33.6833 -84.5667 287° West 262 302 5,100 2,100 Climbing Atlanta TRACON
09:33PM 33.9529 -84.2667 North  Level FlightAware Approximate
09:33PM 33.7500 -84.5833 348° North 276 318 7,300  Level Atlanta TRACON
09:34PM 34.0812 -84.2667 North  Level FlightAware Approximate
09:34PM 33.8600 -84.5117 28° Northeast 278 320 11,000  Level Atlanta Center
09:35PM 34.2096 -84.2667 North  Level FlightAware Approximate
09:35PM 33.9356 -84.4094 48° Northeast 325 374 12,300  Level Atlanta Center
09:36PM 34.3369 -84.2539 11° North  Level FlightAware Approximate
09:36PM 34.0381 -84.3672 19° North 363 418 13,700  Level Atlanta Center
09:37PM 34.1342 -84.3350 16° North 369 425 15,000 1,500 Climbing Atlanta Center
09:38PM 34.2489 -84.2950 16° North 402 463 16,800 1,560 Climbing Atlanta Center
09:39PM 34.3617 -84.2653 12° North 416 479 18,200 1,440 Climbing Atlanta Center
09:40PM 34.4828 -84.2378 11° North 426 490 19,700 1,380 Climbing Atlanta Center
09:41PM 34.6061 -84.2078 11° North 436 502 21,000 1,200 Climbing Atlanta Center
09:42PM 34.7397 -84.1778 10° North 442 509 22,200 1,260 Climbing Atlanta Center
09:43PM 34.8669 -84.1475 11° North 454 522 23,600 1,140 Climbing Atlanta Center
09:44PM 34.9964 -84.1175 11° North 459 528 24,500 960 Climbing Atlanta Center
09:45PM 35.1278 -84.0844 12° North 469 540 25,600 1,200 Climbing Atlanta Center
09:46PM 35.2592 -84.0539 11° North 474 545 27,000 1,200 Climbing Atlanta Center
09:47PM 35.3928 -84.0208 11° North 474 545 28,100 1,200 Climbing Atlanta Center
09:48PM 35.5222 -83.9903 11° North 474 545 29,500 1,380 Climbing Atlanta Center
09:49PM 35.6514 -83.9569 12° North 474 545 30,900 1,200 Climbing Atlanta Center
09:50PM 35.7767 -83.9261 11° North 463 533 32,000 1,020 Climbing Atlanta Center
09:51PM 35.9017 -83.8925 12° North 463 533 33,000 900 Climbing Atlanta Center
09:52PM 36.0225 -83.8206 26° Northeast 463 533 33,900 840 Climbing Atlanta Center
09:53PM 36.1433 -83.7456 27° Northeast 469 540 34,700 540 Climbing Atlanta Center
09:54PM 36.2642 -83.6706 27° Northeast 475 547 35,000 120 Climbing Atlanta Center
09:56PM 36.4044 -83.5778 28° Northeast 494 568 35,000  Level Indianapolis Center
09:57PM 36.5322 -83.4978 27° Northeast 508 585 35,000  Level Indianapolis Center
09:58PM 36.6603 -83.4164 27° Northeast 510 587 35,000  Level Indianapolis Center
09:59PM 36.7878 -83.3333 28° Northeast 512 589 35,000  Level Indianapolis Center
10:00PM 36.9164 -83.2503 27° Northeast 512 589 35,000  Level Indianapolis Center
10:01PM 37.0469 -83.1669 27° Northeast 516 594 35,000  Level Indianapolis Center
10:02PM 37.1764 -83.0825 27° Northeast 515 593 35,000  Level Indianapolis Center
10:03PM 37.3056 -82.9972 28° Northeast 517 595 35,000  Level Indianapolis Center
10:04PM 37.4336 -82.9131 28° Northeast 515 593 35,000  Level Indianapolis Center
10:05PM 37.5631 -82.8283 27° Northeast 519 597 35,000  Level Indianapolis Center
10:06PM 37.6922 -82.7433 28° Northeast 520 598 35,000  Level Indianapolis Center
10:07PM 37.8211 -82.6581 28° Northeast 520 598 35,000  Level Indianapolis Center
10:08PM 37.9506 -82.5717 28° Northeast 524 603 35,000  Level Indianapolis Center
10:09PM 38.0797 -82.4836 28° Northeast 527 606 35,000  Level Indianapolis Center
10:10PM 38.2119 -82.3933 28° Northeast 528 608 35,000  Level Indianapolis Center
10:11PM 38.3436 -82.3050 28° Northeast 530 610 35,000  Level Indianapolis Center
10:12PM 38.4736 -82.2183 28° Northeast 527 606 35,000  Level Indianapolis Center
10:13PM 38.6044 -82.1294 28° Northeast 529 609 35,000  Level Indianapolis Center
10:14PM 38.7361 -82.0394 28° Northeast 529 609 35,000  Level Indianapolis Center
10:15PM 38.8625 -81.9342 33° Northeast 533 613 35,000  Level Indianapolis Center
10:16PM 38.9897 -81.8272 33° Northeast 537 618 35,000  Level Indianapolis Center
10:17PM 39.1156 -81.7200 33° Northeast 537 618 35,000  Level Indianapolis Center
10:18PM 39.2431 -81.6092 34° Northeast 546 628 35,000  Level Indianapolis Center
10:19PM 39.3692 -81.5006 34° Northeast 544 626 35,000  Level Indianapolis Center
10:20PM 39.4883 -81.3794 38° Northeast 542 624 35,000  Level Indianapolis Center
10:21PM 39.6053 -81.2514 40° Northeast 547 629 35,000  Level Indianapolis Center
10:22PM 39.7219 -81.1239 40° Northeast 547 629 35,000  Level Indianapolis Center
10:23PM 39.8389 -80.9961 40° Northeast 548 631 35,000  Level Indianapolis Center
10:24PM 39.9550 -80.8681 40° Northeast 546 628 35,000  Level Indianapolis Center
10:25PM 40.0639 -80.7467 40° Northeast 543 625 35,000  Level Indianapolis Center
10:26PM 40.1803 -80.6186 40° Northeast 544 626 35,000  Level Indianapolis Center
10:27PM 40.2942 -80.4908 41° Northeast 538 619 35,000  Level Indianapolis Center
10:28PM 40.4222 -80.3478 40° Northeast 538 619 35,000  Level Indianapolis Center
10:29PM 40.5378 -80.2197 40° Northeast 529 609 35,000  Level Cleveland Center
10:30PM 40.6644 -80.0794 40° Northeast 537 618 35,000  Level Cleveland Center
10:31PM 40.7803 -79.9442 41° Northeast 537 618 35,000  Level Cleveland Center
10:32PM 40.8922 -79.8167 41° Northeast 537 618 35,000  Level Cleveland Center
10:33PM 41.0039 -79.6861 41° Northeast 532 612 35,000  Level Cleveland Center
10:34PM 41.1194 -79.5578 40° Northeast 532 612 35,000  Level Cleveland Center
10:35PM 41.2328 -79.4264 41° Northeast 532 612 35,000  Level Cleveland Center
10:36PM 41.3461 -79.2942 41° Northeast 532 612 35,000  Level Cleveland Center
10:37PM 41.4469 -79.1731 42° Northeast 532 612 35,000  Level Cleveland Center
10:38PM 41.5619 -79.0403 41° Northeast 532 612 35,000  Level Cleveland Center
10:39PM 41.6725 -78.9069 42° Northeast 532 612 35,000  Level Cleveland Center
10:40PM 41.7872 -78.7703 42° Northeast 537 618 35,000  Level Cleveland Center
10:41PM 41.9019 -78.6358 41° Northeast 537 618 35,000  Level Cleveland Center
10:42PM 42.0161 -78.5011 41° Northeast 537 618 35,000  Level Cleveland Center
10:43PM 42.1325 -78.3600 42° Northeast 542 624 35,000  Level Cleveland Center
10:44PM 42.2483 -78.2214 42° Northeast 550 633 35,000  Level Cleveland Center
10:45PM 42.3622 -78.0794 43° Northeast 550 633 35,000  Level Cleveland Center
10:46PM 42.4778 -77.9397 42° Northeast 550 633 35,000  Level Cleveland Center
10:47PM 42.5994 -77.7906 42° Northeast 544 626 35,000  Level Cleveland Center
10:48PM 42.6944 -77.6761 42° Northeast 549 632 35,000  Level Cleveland Center
10:50PM 42.9244 -77.3861 43° Northeast 534 615 35,000  Level Boston Center
10:51PM 43.0369 -77.2447 43° Northeast 534 615 35,000  Level Boston Center
10:52PM 43.1492 -77.1053 42° Northeast 534 615 35,000  Level Boston Center
10:53PM 43.2414 -76.9897 42° Northeast 534 615 35,000 -900 Level Boston Center
10:54PM 43.3753 -76.8169 43° Northeast 539 620 33,300 -1,020 Descending Boston Center
10:55PM 43.4936 -76.6678 42° Northeast 549 632 33,000 -660 Descending Boston Center
10:56PM 43.6106 -76.5469 37° Northeast 567 652 32,000 -1,020 Descending Boston Center
10:57PM 43.7489 -76.4069 36° Northeast 567 652 31,000 -1,020 Descending Boston Center
10:58PM 43.8722 -76.2767 37° Northeast 562 647 30,000 -1,020 Descending Boston Center
10:59PM 43.9908 -76.1517 37° Northeast 555 639 29,000 -1,020 Descending Boston Center
11:00PM 44.1075 -76.0286 37° Northeast 533 613 28,000 -1,020 Descending Boston Center
11:01PM 44.2278 -75.9056 36° Northeast 528 608 27,000 -1,020 Descending Boston Center
11:02PM 44.3442 -75.7786 38° Northeast 528 608 26,000 -600 Descending Boston Center
11:03PM 44.4167 -75.6833 43° Northeast 520 598 26,000  Level Montreal Center
11:04PM 44.5333 -75.5667 35° Northeast 520 598 26,000  Level Montreal Center
11:05PM 44.6500 -75.4333 39° Northeast 520 598 26,000  Level Montreal Center
11:06PM 44.7500 -75.3000 43° Northeast 520 598 26,000  Level Montreal Center
11:07PM 44.8500 -75.1500 47° Northeast 520 598 26,000 -900 Level Montreal Center
11:08PM 44.9333 -75.0000 52° Northeast 510 587 24,300 -1,920 Descending Montreal Center
11:09PM 45.0167 -74.8333 55° Northeast 490 564 22,200 -2,040 Descending Montreal Center
11:10PM 45.0833 -74.6833 58° Northeast 460 529 20,300 -1,920 Descending Montreal Center
11:11PM 45.1500 -74.5500 55° Northeast 450 518 18,400 -1,980 Descending Montreal Center
11:12PM 45.2167 -74.3833 60° Northeast 440 506 16,400 -2,220 Descending Montreal Center
11:13PM 45.2667 -74.2500 62° Northeast 410 472 14,000 -2,280 Descending Montreal Center
11:14PM 45.3333 -74.1167 55° Northeast 370 426 11,900 -1,800 Descending Montreal Center
11:15PM 45.3667 -74.0167 65° Northeast 310 357 10,400 -1,800 Descending Montreal Center
11:16PM 45.4333 -73.9333 41° Northeast 280 322 8,300 -2,160 Descending Montreal Center
11:17PM 45.4833 -73.8667 43° Northeast 280 322 6,100 -2,220 Descending Montreal Center
11:18PM 45.5500 -73.7833 41° Northeast 270 311 3,900 -1,560 Descending Montreal Center
11:19PM 45.6000 -73.7167 43° Northeast 260 299 3,000 -480 Descending Montreal Center
11:20PM 45.6333 -73.6500 54° Northeast 240 276 3,000  Level Montreal Center
11:21PM 45.6167 -73.5667 106° East 230 265 3,000  Level Montreal Center